Bergen, Canada
Current Conditions -  °F | °C
As of 4:00 PM on Monday 24 Nov 2014 (Local Time) from CYBW Reporting Station
Broken Clouds Broken Clouds  
Wind Chill: 28°   Ceiling: 13000
Heat Index: 36°   Visibility: 9mi
Dew Point: 16°   Wind: 10mph
Humidity: 44%   Direction: 230°SW
Pressure: 29.85"   Gusts: NA
Location:  51.71°N, 114.63°W
Report Text: CYBW 242300Z AUTO 23009KT 9SM BKN130 02/M09 A2985 RMK SLP153
Loading
Personal Weather Stations






























Interactive Weather Map New forecast layout! Learn more

10-Day Weather Forecast

Advertisements
Track Severe Weather on mobile